createdAt,value
2019-03-30T08:05:00.480Z,102013.81
2019-03-30T08:07:31.528Z,102016.01
2019-03-30T08:10:01.985Z,102009.09
2019-03-30T08:12:32.513Z,102014.95
2019-03-30T08:15:03.270Z,102005.05
2019-03-30T08:17:34.771Z,102002.94
2019-03-30T08:20:08.018Z,102001.78
2019-03-30T08:22:38.732Z,102001.94
2019-03-30T08:25:11.238Z,101999.19
2019-03-30T08:27:42.089Z,101994.59
2019-03-30T08:30:12.551Z,101989.37
2019-03-30T08:32:43.001Z,101992.11
2019-03-30T08:35:13.643Z,101980.02
2019-03-30T08:37:44.162Z,101979.89
2019-03-30T08:40:14.812Z,101984.69
2019-03-30T08:42:45.305Z,101983.96
2019-03-30T08:45:15.821Z,101975.34
2019-03-30T08:47:46.272Z,101969.49
2019-03-30T08:50:16.968Z,101977.59
2019-03-30T08:52:47.413Z,101975.84
2019-03-30T08:55:17.885Z,101970.61
2019-03-30T08:57:48.552Z,101974.26
2019-03-30T09:00:25.312Z,101969.19
2019-03-30T09:02:55.864Z,101967.66
2019-03-30T09:05:27.481Z,101965.97
2019-03-30T09:07:58.023Z,101964.03
2019-03-30T09:10:28.899Z,101965.09
2019-03-30T09:12:59.431Z,101960.51
2019-03-30T09:15:29.988Z,101958.73
2019-03-30T09:18:00.428Z,101954.75
2019-03-30T09:20:30.899Z,101951.20
2019-03-30T09:23:01.419Z,101950.84
2019-03-30T09:25:33.004Z,101949.72
2019-03-30T09:28:03.527Z,101949.06
2019-03-30T09:30:34.158Z,101945.13
2019-03-30T09:33:04.771Z,101942.06
2019-03-30T09:35:35.317Z,101941.34
2019-03-30T09:38:05.834Z,101941.25
2019-03-30T09:40:36.457Z,101949.28
2019-03-30T09:43:06.985Z,101942.31
2019-03-30T09:45:39.127Z,101939.47
2019-03-30T09:48:09.547Z,101929.27
2019-03-30T09:50:41.489Z,101927.30
2019-03-30T09:53:12.019Z,101921.06
2019-03-30T09:55:42.613Z,101924.64
2019-03-30T09:58:13.049Z,101914.94
2019-03-30T10:00:43.754Z,101908.33
2019-03-30T10:03:14.335Z,101902.13
2019-03-30T10:05:45.013Z,101897.89
2019-03-30T10:08:15.466Z,101891.59
2019-03-30T10:10:46.258Z,101886.59
2019-03-30T10:13:16.718Z,101881.73
2019-03-30T10:15:47.505Z,101884.66
2019-03-30T10:18:18.040Z,101884.89
2019-03-30T10:20:48.752Z,101871.70
2019-03-30T10:23:19.280Z,101878.70
2019-03-30T10:25:50.703Z,101870.17
2019-03-30T10:28:21.154Z,101868.28
2019-03-30T10:30:51.637Z,101869.27
2019-03-30T10:33:22.320Z,101862.99
2019-03-30T10:35:52.964Z,101864.36
2019-03-30T10:38:23.421Z,101861.88
2019-03-30T10:40:53.977Z,101859.77
2019-03-30T10:43:24.600Z,101851.97
2019-03-30T10:45:55.175Z,101834.03
2019-03-30T10:48:25.764Z,101840.09
2019-03-30T10:50:56.340Z,101839.67
2019-03-30T10:53:26.855Z,101826.30
2019-03-30T10:55:57.547Z,101823.63
2019-03-30T10:58:28.188Z,101823.71
2019-03-30T11:00:58.846Z,101820.04
2019-03-30T11:03:29.398Z,101821.52
2019-03-30T11:06:25.165Z,101810.89
2019-03-30T11:09:04.378Z,101808.84
2019-03-30T11:11:38.325Z,101806.08
2019-03-30T11:14:08.891Z,101802.67
2019-03-30T11:16:39.496Z,101794.23
2019-03-30T11:19:10.100Z,101788.22
2019-03-30T11:21:40.618Z,101788.37
2019-03-30T11:24:11.069Z,101787.07
2019-03-30T11:26:41.526Z,101780.73
2019-03-30T11:29:48.466Z,101783.66
2019-03-30T11:32:32.293Z,101778.37
2019-03-30T11:35:02.869Z,101779.96
2019-03-30T11:37:33.455Z,101773.67
2019-03-30T11:40:06.486Z,101774.28
2019-03-30T11:42:37.033Z,101762.32
2019-03-30T11:45:07.743Z,101765.41
2019-03-30T11:47:38.228Z,101760.72
2019-03-30T11:50:08.748Z,101765.91
2019-03-30T11:52:39.248Z,101751.06
2019-03-30T11:55:20.871Z,101754.86
2019-03-30T11:57:42.137Z,101746.19
2019-03-30T12:00:12.748Z,101744.92
2019-03-30T12:02:43.308Z,101741.64
2019-03-30T12:05:13.816Z,101735.67
2019-03-30T12:56:08.995Z,101552.19
2019-03-30T12:58:40.005Z,101553.52
2019-03-30T13:01:11.549Z,101553.91
2019-03-30T13:03:43.005Z,101552.63
2019-03-30T13:06:14.541Z,101537.66
2019-03-30T13:08:47.784Z,101538.70
2019-03-30T13:11:19.431Z,101532.52
2019-03-30T13:13:50.960Z,101525.69
2019-03-30T13:16:22.539Z,101525.28
2019-03-30T13:18:54.156Z,101520.38
2019-03-30T13:21:25.716Z,101531.48
2019-03-30T13:23:57.159Z,101518.55
2019-03-30T13:26:28.832Z,101513.75
2019-03-30T13:29:00.448Z,101508.97
2019-03-30T13:31:32.162Z,101505.38
2019-03-30T13:34:03.693Z,101502.54
2019-03-30T13:36:39.877Z,101499.09
2019-03-30T13:39:11.409Z,101497.36
2019-03-30T13:41:42.930Z,101493.59
2019-03-30T13:44:14.606Z,101493.96
2019-03-30T13:46:46.637Z,101493.27
2019-03-30T13:49:18.221Z,101489.09
2019-03-30T13:51:49.799Z,101486.36
2019-03-30T13:54:21.326Z,101486.00
2019-03-30T13:56:52.913Z,101486.25
2019-03-30T13:59:24.449Z,101482.31
2019-03-30T14:01:56.080Z,101480.56
2019-03-30T14:04:27.679Z,101478.03
2019-03-30T14:06:59.329Z,101473.05
2019-03-30T14:09:30.947Z,101466.78
2019-03-30T14:12:02.527Z,101459.79
2019-03-30T14:14:34.124Z,101460.71
2019-03-30T14:17:05.757Z,101464.48
2019-03-30T14:19:37.634Z,101455.22
2019-03-30T14:22:09.198Z,101450.35
2019-03-30T14:24:40.914Z,101445.05
2019-03-30T14:27:12.393Z,101445.97
2019-03-30T14:29:44.120Z,101438.30
2019-03-30T14:32:15.722Z,101436.53
2019-03-30T14:34:47.716Z,101425.31
2019-03-30T14:37:19.364Z,101431.64
2019-03-30T14:39:50.970Z,101429.73
2019-03-30T14:42:22.450Z,101423.53
2019-03-30T14:44:54.138Z,101420.83
2019-03-30T14:47:25.836Z,101417.84
2019-03-30T14:49:57.323Z,101413.84
2019-03-30T14:52:28.881Z,101418.43
2019-03-30T14:55:00.448Z,101408.48
2019-03-30T14:57:32.082Z,101400.34
2019-03-30T15:00:04.174Z,101403.77
2019-03-30T15:02:35.863Z,101392.90
2019-03-30T15:05:08.230Z,101393.80
2019-03-30T15:07:39.849Z,101390.55
2019-03-30T15:10:11.309Z,101387.25
2019-03-30T15:12:42.878Z,101376.92
2019-03-30T15:15:14.556Z,101379.67
2019-03-30T15:17:46.241Z,101376.67
2019-03-30T15:20:17.964Z,101373.84
2019-03-30T15:22:49.607Z,101364.08
2019-03-30T15:25:21.220Z,101364.89
2019-03-30T15:27:52.861Z,101365.22
2019-03-30T15:30:24.379Z,101357.70
2019-03-30T15:32:55.928Z,101357.28
2019-03-30T15:35:27.583Z,101348.72
2019-03-30T15:37:59.444Z,101350.36
2019-03-30T15:40:30.922Z,101344.42
2019-03-30T15:43:02.647Z,101338.95
2019-03-30T15:45:34.186Z,101341.89
2019-03-30T15:48:05.811Z,101337.02
2019-03-30T15:50:37.386Z,101334.73
2019-03-30T15:53:10.269Z,101335.13
2019-03-30T15:55:41.853Z,101332.24
2019-03-30T15:58:13.480Z,101333.74
2019-03-30T16:00:44.930Z,101323.71
2019-03-30T16:03:16.483Z,101320.94
2019-03-30T16:05:47.926Z,101316.64
2019-03-30T16:08:19.658Z,101315.16
2019-03-30T16:10:52.380Z,101316.36
2019-03-30T16:13:24.339Z,101308.98
2019-03-30T16:15:55.802Z,101310.14
2019-03-30T16:18:27.352Z,101301.94
2019-03-30T16:20:58.801Z,101296.75
2019-03-30T16:23:30.361Z,101298.75
2019-03-30T16:26:01.890Z,101298.96
2019-03-30T16:28:33.618Z,101304.11
2019-03-30T16:31:05.051Z,101307.32
2019-03-30T16:33:36.609Z,101299.65
2019-03-30T16:36:08.148Z,101296.65
2019-03-30T16:38:39.826Z,101289.60
2019-03-30T16:41:11.484Z,101286.07
2019-03-30T16:43:43.318Z,101283.57
2019-03-30T16:46:14.841Z,101281.36
2019-03-30T16:48:46.469Z,101276.03
2019-03-30T16:51:18.129Z,101274.80
2019-03-30T16:53:49.839Z,101266.83
2019-03-30T16:56:21.359Z,101264.30
2019-03-30T16:58:52.920Z,101259.38
2019-03-30T17:01:24.569Z,101256.84
2019-03-30T17:03:56.121Z,101255.98
2019-03-30T17:06:27.631Z,101260.45
2019-03-30T17:08:59.352Z,101260.80
2019-03-30T17:11:31.862Z,101258.11
2019-03-30T17:14:03.573Z,101255.91
2019-03-30T17:16:35.162Z,101252.90
2019-03-30T17:19:07.774Z,101262.33
2019-03-30T17:21:39.285Z,101269.16
2019-03-30T17:24:10.921Z,101265.95
2019-03-30T17:26:43.575Z,101259.53
2019-03-30T17:29:15.240Z,101258.66
2019-03-30T17:31:47.004Z,101259.83
2019-03-30T17:34:18.695Z,101263.77
2019-03-30T17:36:50.262Z,101255.38
2019-03-30T17:39:21.910Z,101260.28
2019-03-30T17:41:53.477Z,101256.86
2019-03-30T17:44:25.305Z,101260.87
2019-03-30T17:46:56.845Z,101257.81
2019-03-30T17:49:28.401Z,101260.78
2019-03-30T17:51:59.944Z,101257.20
2019-03-30T17:54:31.415Z,101261.71
2019-03-30T17:57:02.917Z,101261.20
2019-03-30T17:59:34.699Z,101260.84
2019-03-30T18:02:06.274Z,101254.70
2019-03-30T18:04:39.029Z,101262.45
2019-03-30T18:07:13.656Z,101267.25
2019-03-30T18:09:45.254Z,101262.59
2019-03-30T18:12:16.685Z,101268.07
2019-03-30T18:14:48.213Z,101261.78
2019-03-30T18:17:19.974Z,101273.56
2019-03-30T18:19:51.640Z,101273.47
2019-03-30T18:22:23.295Z,101271.95
2019-03-30T18:24:54.855Z,101275.73
2019-03-30T18:27:26.377Z,101271.09
2019-03-30T18:29:58.002Z,101270.05
2019-03-30T18:32:29.558Z,101277.48
2019-03-30T18:35:04.348Z,101276.70
2019-03-30T18:37:35.895Z,101279.49
2019-03-30T18:40:09.032Z,101279.14
2019-03-30T18:42:40.659Z,101278.60
2019-03-30T18:45:17.176Z,101278.98
2019-03-30T18:47:48.712Z,101278.72
2019-03-30T18:50:20.314Z,101270.31
2019-03-30T18:52:51.959Z,101275.70
2019-03-30T18:55:26.795Z,101281.37
2019-03-30T18:57:58.397Z,101281.91
2019-03-30T19:00:29.963Z,101282.59
2019-03-30T19:03:01.662Z,101274.53
2019-03-30T19:05:33.226Z,101281.01
2019-03-30T19:08:04.831Z,101283.12
2019-03-30T19:10:36.624Z,101281.91
2019-03-30T19:13:08.304Z,101278.20
2019-03-30T19:15:39.924Z,101275.70
2019-03-30T19:18:11.528Z,101273.47
2019-03-30T19:20:45.033Z,101269.18
2019-03-30T19:23:16.704Z,101273.52
2019-03-30T19:25:48.476Z,101278.13
2019-03-30T19:28:20.036Z,101273.16
2019-03-30T19:30:51.523Z,101270.90
2019-03-30T19:33:23.282Z,101274.22
2019-03-30T19:35:54.897Z,101273.22
2019-03-30T19:38:26.664Z,101277.19
2019-03-30T19:40:59.384Z,101281.03
2019-03-30T19:43:30.918Z,101279.87
2019-03-30T19:46:02.613Z,101284.14
2019-03-30T19:48:36.916Z,101283.42
2019-03-30T19:51:07.598Z,101274.58
2019-03-30T19:53:39.372Z,101276.96
2019-03-30T19:56:10.966Z,101284.08
2019-03-30T19:58:42.663Z,101282.59
2019-03-30T20:01:15.318Z,101283.92
2019-03-30T20:03:46.956Z,101278.71
2019-03-30T20:06:18.500Z,101282.02
2019-03-30T20:08:50.099Z,101290.30
2019-03-30T20:11:21.649Z,101287.14
2019-03-30T20:13:53.631Z,101283.08
2019-03-30T20:16:25.263Z,101286.25
2019-03-30T20:19:11.484Z,101288.89
2019-03-30T20:21:30.189Z,101285.65
2019-03-30T20:24:01.715Z,101283.36
2019-03-30T20:26:33.346Z,101281.69
2019-03-30T20:29:05.180Z,101279.36
2019-03-30T20:31:37.913Z,101281.27
2019-03-30T20:34:09.577Z,101271.10
2019-03-30T20:36:41.316Z,101276.53
2019-03-30T20:39:12.922Z,101274.06
2019-03-30T20:41:44.678Z,101275.11
2019-03-30T20:44:16.283Z,101265.05
2019-03-30T20:46:47.969Z,101259.41
2019-03-30T20:49:19.656Z,101265.43
2019-03-30T20:51:51.298Z,101258.56
2019-03-30T20:54:22.893Z,101262.59
2019-03-30T20:56:55.397Z,101258.92
2019-03-30T20:59:39.418Z,101255.38
2019-03-30T21:02:00.176Z,101262.97
2019-03-30T21:04:31.703Z,101251.83
2019-03-30T21:07:03.261Z,101253.77
2019-03-30T21:09:34.790Z,101256.81
2019-03-30T21:12:06.323Z,101244.80
2019-03-30T21:14:37.770Z,101249.10
2019-03-30T21:17:09.319Z,101255.31
2019-03-30T21:19:40.779Z,101249.23
2019-03-30T21:22:12.404Z,101248.55
2019-03-30T21:24:43.994Z,101245.89
2019-03-30T21:27:15.571Z,101245.75
2019-03-30T21:29:54.609Z,101244.25
2019-03-30T21:32:20.552Z,101244.97
2019-03-30T21:34:52.144Z,101247.12
2019-03-30T21:37:23.693Z,101247.61
2019-03-30T21:39:55.297Z,101248.44
2019-03-30T21:42:26.924Z,101245.80
2019-03-30T21:44:58.447Z,101250.25
2019-03-30T21:47:30.027Z,101245.95
2019-03-30T21:50:01.587Z,101249.05
2019-03-30T21:52:33.237Z,101247.42
2019-03-30T21:55:05.500Z,101243.47
2019-03-30T21:57:37.051Z,101239.16
2019-03-30T22:00:10.962Z,101245.42
2019-03-30T22:02:42.695Z,101236.75
2019-03-30T22:05:14.319Z,101239.73
2019-03-30T22:07:45.841Z,101239.84
2019-03-30T22:10:22.232Z,101237.05
2019-03-30T22:12:54.217Z,101232.21
2019-03-30T22:15:29.892Z,101234.36
2019-03-30T22:18:01.512Z,101230.70
2019-03-30T22:20:33.175Z,101234.16
2019-03-30T22:23:04.812Z,101227.16
2019-03-30T22:25:36.829Z,101226.89
2019-03-30T22:28:08.369Z,101230.13
2019-03-30T22:30:39.950Z,101230.75
2019-03-30T22:33:11.518Z,101225.18
2019-03-30T22:35:43.040Z,101229.30
2019-03-30T22:38:14.679Z,101226.09
2019-03-30T22:40:46.186Z,101226.36
2019-03-30T22:43:17.742Z,101229.24
2019-03-30T22:45:49.267Z,101224.02
2019-03-30T22:48:21.048Z,101220.28
2019-03-30T22:50:52.482Z,101217.02
2019-03-30T22:53:24.190Z,101222.20
2019-03-30T22:55:55.704Z,101223.46
2019-03-30T22:58:27.262Z,101220.33
2019-03-30T23:01:03.359Z,101221.53
2019-03-30T23:03:47.152Z,101220.74
2019-03-30T23:06:20.904Z,101217.71
2019-03-30T23:08:53.853Z,101220.23
2019-03-30T23:11:25.484Z,101214.68
2019-03-30T23:13:57.074Z,101218.22
2019-03-30T23:16:28.764Z,101216.70
2019-03-30T23:19:00.331Z,101211.84
2019-03-30T23:21:31.924Z,101215.78
2019-03-30T23:24:03.624Z,101214.17
2019-03-30T23:26:35.129Z,101205.48
2019-03-30T23:29:06.688Z,101215.88
2019-03-30T23:31:38.212Z,101212.92
2019-03-30T23:34:09.745Z,101210.70
2019-03-30T23:36:41.252Z,101214.98
2019-03-30T23:39:12.790Z,101207.07
2019-03-30T23:41:44.377Z,101209.51
2019-03-30T23:44:16.019Z,101204.53
2019-03-30T23:46:47.690Z,101206.97
2019-03-30T23:49:19.319Z,101202.09
2019-03-30T23:51:50.854Z,101203.91
2019-03-30T23:54:22.387Z,101201.81
2019-03-30T23:56:53.983Z,101191.90
2019-03-30T23:59:25.538Z,101198.48
